Weather at Enniskillen/St Angelo Airport

Public forecast

Using degrees Celsius for public forecast. Weather courtesy of forecast.io.

Closest aviation weather report (METAR) to Enniskillen/St Angelo Airport

Report is more than 2 hours old.

Closest report is Sligo Airport, 33.9 nm (62.8 km) WSW. Retrieved 2022/07/01 20:30 UTC (5 hours ago):

EISG 012030Z 23006KT 9999 SCT025 BKN038 OVC060 13/10 Q1009

Closest aviation forecast (TAF) to Enniskillen/St Angelo Airport

Closest forecast is Ireland West Knock Airport, 50.4 nm (93.4 km) SW. Retrieved 2022-07-02 00:11 UTC (1 hour ago):

TAF EIKN 012300Z 0200/0224 22006KT 9999 FEW012 BKN020 PROB40 TEMPO 0200/0212 4000 SHRA BKN012 BECMG 0208/0210 27010KT BECMG 0213/0215 30010KT PROB30 TEMPO 0219/0224 3000 -RA BKN005